^^
Saratoga-Weather Station Historical Data
Daily Summary for January 12, 2021 Units:  Both    English   Metric
Daily Weekly Monthly Yearly Custom
  High: Low: Average:
Temperature: 76.8 °F /  24.9 °C 57.9 °F /  14.4 °C 63.1 °F /  17.3 °C
Dew Point: 65.5 °F /  18.6 °C 56.5 °F /  13.6 °C 59.5 °F /  15.3 °C
Humidity: 97% 66% 89%
Wind Speed: 2.9mph /  4.7km/h - 0.2mph /  0.4km/h
Wind Gust: 4mph /  6.4km/h - -
Wind- - East
Pressure: 30.1 in /  1019.0 hPa 30.1 in /  1018.3 hPa -
Precipitation: 0 in /  0.0 mm    
Historical Graphs
 
 
Tabular Data for January 12, 2021
Time Temperature Dew Point Pressure Wind Wind Speed Wind Gust Humidity Rainfall Rate (Hourly) solar
00:03 63.7 °F /  17.6 °C 60.1 °F /  15.6 °C 30.1in /  1018.6hPa Calm     88% 0in /  0.0mm 0 W/m2
00:08 63.5 °F /  17.5 °C 59.9 °F /  15.5 °C 30.1in /  1018.6hPa Calm     88% 0in /  0.0mm 0 W/m2
00:13 63.3 °F /  17.4 °C 60.1 °F /  15.6 °C 30.1in /  1018.6hPa Calm     89% 0in /  0.0mm 0 W/m2
00:18 63.3 °F /  17.4 °C 60.1 °F /  15.6 °C 30.1in /  1018.6hPa Calm     89% 0in /  0.0mm 0 W/m2
00:23 63.1 °F /  17.3 °C 60.1 °F /  15.6 °C 30.1in /  1018.6hPa Calm     90% 0in /  0.0mm 0 W/m2
00:28 63.1 °F /  17.3 °C 60.1 °F /  15.6 °C 30.1in /  1018.6hPa Calm     90% 0in /  0.0mm 0 W/m2
00:33 63 °F /  17.2 °C 59.9 °F /  15.5 °C 30.1in /  1018.6hPa Calm     90% 0in /  0.0mm 0 W/m2
00:38 63 °F /  17.2 °C 59.9 °F /  15.5 °C 30.1in /  1018.6hPa Calm     90% 0in /  0.0mm 0 W/m2
00:43 62.8 °F /  17.1 °C 59.7 °F /  15.4 °C 30.1in /  1018.6hPa Calm     90% 0in /  0.0mm 0 W/m2
00:48 62.8 °F /  17.1 °C 59.7 °F /  15.4 °C 30.1in /  1018.6hPa Calm     90% 0in /  0.0mm 0 W/m2
00:53 62.6 °F /  17 °C 59.5 °F /  15.3 °C 30.1in /  1018.6hPa Calm     90% 0in /  0.0mm 0 W/m2
00:58 62.4 °F /  16.9 °C 59.7 °F /  15.4 °C 30.1in /  1018.6hPa Calm     91% 0in /  0.0mm 0 W/m2
01:03 62.2 °F /  16.8 °C 59.5 °F /  15.3 °C 30.1in /  1018.6hPa Calm     91% 0in /  0.0mm 0 W/m2
01:08 62.2 °F /  16.8 °C 59.5 °F /  15.3 °C 30.1in /  1018.6hPa Calm     91% 0in /  0.0mm 0 W/m2
01:13 62.1 °F /  16.7 °C 59.4 °F /  15.2 °C 30.1in /  1018.6hPa Calm     91% 0in /  0.0mm 0 W/m2
01:18 62.1 °F /  16.7 °C 59.4 °F /  15.2 °C 30.1in /  1018.6hPa Calm     91% 0in /  0.0mm 0 W/m2
01:23 62.1 °F /  16.7 °C 59.4 °F /  15.2 °C 30.1in /  1018.6hPa Calm     91% 0in /  0.0mm 0 W/m2
01:28 61.9 °F /  16.6 °C 59.5 °F /  15.3 °C 30.1in /  1018.6hPa Calm     92% 0in /  0.0mm 0 W/m2
01:33 61.9 °F /  16.6 °C 59.5 °F /  15.3 °C 30.1in /  1018.6hPa Calm     92% 0in /  0.0mm 0 W/m2
01:38 61.7 °F /  16.5 °C 59.4 °F /  15.2 °C 30.1in /  1018.6hPa Calm     92% 0in /  0.0mm 0 W/m2
01:43 61.7 °F /  16.5 °C 59.4 °F /  15.2 °C 30.1in /  1018.6hPa Calm     92% 0in /  0.0mm 0 W/m2
01:48 61.5 °F /  16.4 °C 59.2 °F /  15.1 °C 30.1in /  1018.6hPa Calm     92% 0in /  0.0mm 0 W/m2
01:53 61.3 °F /  16.3 °C 59 °F /  15 °C 30.1in /  1018.6hPa Calm     92% 0in /  0.0mm 0 W/m2
01:58 61.3 °F /  16.3 °C 59 °F /  15 °C 30.1in /  1018.6hPa Calm     92% 0in /  0.0mm 0 W/m2
02:03 61.3 °F /  16.3 °C 59 °F /  15 °C 30.1in /  1018.6hPa Calm     92% 0in /  0.0mm 0 W/m2
02:08 61.2 °F /  16.2 °C 59.2 °F /  15.1 °C 30.1in /  1018.6hPa Calm     93% 0in /  0.0mm 0 W/m2
02:13 61.2 °F /  16.2 °C 59.2 °F /  15.1 °C 30.1in /  1018.6hPa Calm     93% 0in /  0.0mm 0 W/m2
02:18 61 °F /  16.1 °C 58.6 °F /  14.8 °C 30.1in /  1018.6hPa Calm     92% 0in /  0.0mm 0 W/m2
02:23 61 °F /  16.1 °C 59 °F /  15 °C 30.1in /  1018.6hPa Calm     93% 0in /  0.0mm 0 W/m2
02:28 60.8 °F /  16 °C 58.8 °F /  14.9 °C 30.1in /  1019.0hPa Calm     93% 0in /  0.0mm 0 W/m2
02:33 60.6 °F /  15.9 °C 58.6 °F /  14.8 °C 30.1in /  1018.6hPa Calm     93% 0in /  0.0mm 0 W/m2
02:38 60.4 °F /  15.8 °C 58.5 °F /  14.7 °C 30.1in /  1018.6hPa Calm     93% 0in /  0.0mm 0 W/m2
02:43 60.4 °F /  15.8 °C 58.5 °F /  14.7 °C 30.1in /  1018.6hPa Calm     93% 0in /  0.0mm 0 W/m2
02:48 60.3 °F /  15.7 °C 58.3 °F /  14.6 °C 30.1in /  1018.6hPa Calm     93% 0in /  0.0mm 0 W/m2
02:53 60.3 °F /  15.7 °C 58.3 °F /  14.6 °C 30.1in /  1018.6hPa Calm     93% 0in /  0.0mm 0 W/m2
02:58 60.3 °F /  15.7 °C 58.3 °F /  14.6 °C 30.1in /  1018.6hPa Calm     93% 0in /  0.0mm 0 W/m2
03:03 60.1 °F /  15.6 °C 58.1 °F /  14.5 °C 30.1in /  1018.6hPa Calm     93% 0in /  0.0mm 0 W/m2
03:08 60.1 °F /  15.6 °C 58.3 °F /  14.6 °C 30.1in /  1018.6hPa Calm     94% 0in /  0.0mm 0 W/m2
03:13 59.9 °F /  15.5 °C 58.1 °F /  14.5 °C 30.1in /  1018.6hPa Calm     94% 0in /  0.0mm 0 W/m2
03:18 59.7 °F /  15.4 °C 57.9 °F /  14.4 °C 30.1in /  1018.6hPa Calm     94% 0in /  0.0mm 0 W/m2
03:23 59.7 °F /  15.4 °C 57.9 °F /  14.4 °C 30.1in /  1018.6hPa Calm     94% 0in /  0.0mm 0 W/m2
03:28 59.7 °F /  15.4 °C 57.9 °F /  14.4 °C 30.1in /  1018.6hPa Calm     94% 0in /  0.0mm 0 W/m2
03:33 59.5 °F /  15.3 °C 57.7 °F /  14.3 °C 30.1in /  1018.6hPa Calm     94% 0in /  0.0mm 0 W/m2
03:38 59.5 °F /  15.3 °C 57.7 °F /  14.3 °C 30.1in /  1018.6hPa Calm     94% 0in /  0.0mm 0 W/m2
03:43 59.5 °F /  15.3 °C 57.7 °F /  14.3 °C 30.1in /  1018.6hPa Calm     94% 0in /  0.0mm 0 W/m2
03:48 59.4 °F /  15.2 °C 57.6 °F /  14.2 °C 30.1in /  1018.3hPa Calm     94% 0in /  0.0mm 0 W/m2
03:53 59.4 °F /  15.2 °C 57.6 °F /  14.2 °C 30.1in /  1018.3hPa Calm     94% 0in /  0.0mm 0 W/m2
03:58 59.2 °F /  15.1 °C 57.4 °F /  14.1 °C 30.1in /  1018.3hPa Calm     94% 0in /  0.0mm 0 W/m2
04:03 59 °F /  15 °C 57.2 °F /  14 °C 30.1in /  1018.3hPa Calm     94% 0in /  0.0mm 0 W/m2
04:08 58.8 °F /  14.9 °C 57 °F /  13.9 °C 30.1in /  1018.3hPa Calm     94% 0in /  0.0mm 0 W/m2
04:13 58.8 °F /  14.9 °C 57 °F /  13.9 °C 30.1in /  1018.3hPa Calm     94% 0in /  0.0mm 0 W/m2
04:18 58.8 °F /  14.9 °C 57 °F /  13.9 °C 30.1in /  1018.3hPa Calm     94% 0in /  0.0mm 0 W/m2
04:23 58.8 °F /  14.9 °C 57.4 °F /  14.1 °C 30.1in /  1018.3hPa Calm     95% 0in /  0.0mm 0 W/m2
04:28 58.8 °F /  14.9 °C 57.4 °F /  14.1 °C 30.1in /  1018.3hPa Calm     95% 0in /  0.0mm 0 W/m2
04:33 58.8 °F /  14.9 °C 57.4 °F /  14.1 °C 30.1in /  1018.3hPa Calm     95% 0in /  0.0mm 0 W/m2
04:38 59 °F /  15 °C 57.6 °F /  14.2 °C 30.1in /  1018.3hPa Calm     95% 0in /  0.0mm 0 W/m2
04:43 59 °F /  15 °C 57.6 °F /  14.2 °C 30.1in /  1018.3hPa Calm     95% 0in /  0.0mm 0 W/m2
04:49 59 °F /  15 °C 57.6 °F /  14.2 °C 30.1in /  1018.3hPa Calm     95% 0in /  0.0mm 0 W/m2
04:54 58.8 °F /  14.9 °C 57.4 °F /  14.1 °C 30.1in /  1018.3hPa Calm     95% 0in /  0.0mm 0 W/m2
04:59 58.8 °F /  14.9 °C 57.4 °F /  14.1 °C 30.1in /  1018.3hPa Calm     95% 0in /  0.0mm 0 W/m2
05:04 58.8 °F /  14.9 °C 57.4 °F /  14.1 °C 30.1in /  1018.3hPa Calm     95% 0in /  0.0mm 0 W/m2
05:09 58.8 °F /  14.9 °C 57.4 °F /  14.1 °C 30.1in /  1018.3hPa Calm     95% 0in /  0.0mm 0 W/m2
05:14 58.8 °F /  14.9 °C 57.4 °F /  14.1 °C 30.1in /  1018.3hPa Calm     95% 0in /  0.0mm 0 W/m2
05:19 58.6 °F /  14.8 °C 57.2 °F /  14 °C 30.1in /  1018.3hPa Calm     95% 0in /  0.0mm 0 W/m2
05:24 58.6 °F /  14.8 °C 57.2 °F /  14 °C 30.1in /  1018.3hPa Calm     95% 0in /  0.0mm 0 W/m2
05:29 58.6 °F /  14.8 °C 57.2 °F /  14 °C 30.1in /  1018.3hPa Calm     95% 0in /  0.0mm 0 W/m2
05:34 58.5 °F /  14.7 °C 57 °F /  13.9 °C 30.1in /  1018.3hPa Calm     95% 0in /  0.0mm 0 W/m2
05:39 58.5 °F /  14.7 °C 57 °F /  13.9 °C 30.1in /  1018.3hPa Calm     95% 0in /  0.0mm 0 W/m2
05:44 58.5 °F /  14.7 °C 57 °F /  13.9 °C 30.1in /  1018.3hPa Calm     95% 0in /  0.0mm 0 W/m2
05:49 58.5 °F /  14.7 °C 57 °F /  13.9 °C 30.1in /  1018.3hPa Calm     95% 0in /  0.0mm 0 W/m2
05:54 58.3 °F /  14.6 °C 56.8 °F /  13.8 °C 30.1in /  1018.3hPa Calm     95% 0in /  0.0mm 0 W/m2
05:59 58.3 °F /  14.6 °C 56.8 °F /  13.8 °C 30.1in /  1018.3hPa Calm     95% 0in /  0.0mm 0 W/m2
06:04 58.3 °F /  14.6 °C 56.8 °F /  13.8 °C 30.1in /  1018.3hPa Calm     95% 0in /  0.0mm 0 W/m2
06:09 58.3 °F /  14.6 °C 56.8 °F /  13.8 °C 30.1in /  1018.3hPa Calm     95% 0in /  0.0mm 0 W/m2
06:14 58.3 °F /  14.6 °C 56.8 °F /  13.8 °C 30.1in /  1018.3hPa Calm     95% 0in /  0.0mm 0 W/m2
06:19 58.3 °F /  14.6 °C 56.8 °F /  13.8 °C 30.1in /  1018.3hPa Calm     95% 0in /  0.0mm 0 W/m2
06:24 58.3 °F /  14.6 °C 56.8 °F /  13.8 °C 30.1in /  1018.3hPa Calm     95% 0in /  0.0mm 0 W/m2
06:29 58.1 °F /  14.5 °C 56.7 °F /  13.7 °C 30.1in /  1018.3hPa Calm     95% 0in /  0.0mm 5 W/m2
06:34 58.1 °F /  14.5 °C 56.7 °F /  13.7 °C 30.1in /  1018.3hPa Calm     95% 0in /  0.0mm 7 W/m2
06:39 57.9 °F /  14.4 °C 56.5 °F /  13.6 °C 30.1in /  1018.3hPa Calm     95% 0in /  0.0mm 11 W/m2
06:44 57.9 °F /  14.4 °C 56.8 °F /  13.8 °C 30.1in /  1018.3hPa Calm     96% 0in /  0.0mm 14 W/m2
06:49 57.9 °F /  14.4 °C 56.8 °F /  13.8 °C 30.1in /  1018.3hPa Calm     96% 0in /  0.0mm 18 W/m2
06:54 57.9 °F /  14.4 °C 56.8 °F /  13.8 °C 30.1in /  1018.3hPa Calm     96% 0in /  0.0mm 21 W/m2
06:59 57.9 °F /  14.4 °C 56.8 °F /  13.8 °C 30.1in /  1018.3hPa Calm     96% 0in /  0.0mm 26 W/m2
07:04 57.9 °F /  14.4 °C 56.8 °F /  13.8 °C 30.1in /  1018.3hPa Calm     96% 0in /  0.0mm 30 W/m2
07:09 58.1 °F /  14.5 °C 57 °F /  13.9 °C 30.1in /  1018.3hPa Calm     96% 0in /  0.0mm 33 W/m2
07:14 58.3 °F /  14.6 °C 57.2 °F /  14 °C 30.1in /  1018.6hPa Calm     96% 0in /  0.0mm 40 W/m2
07:19 58.3 °F /  14.6 °C 57.2 °F /  14 °C 30.1in /  1018.6hPa Calm     96% 0in /  0.0mm 47 W/m2
07:24 58.5 °F /  14.7 °C 57.4 °F /  14.1 °C 30.1in /  1018.6hPa Calm     96% 0in /  0.0mm 54 W/m2
07:29 58.5 °F /  14.7 °C 57.4 °F /  14.1 °C 30.1in /  1018.6hPa Calm     96% 0in /  0.0mm 58 W/m2
07:34 58.6 °F /  14.8 °C 57.6 °F /  14.2 °C 30.1in /  1018.6hPa Calm     96% 0in /  0.0mm 54 W/m2
07:39 58.8 °F /  14.9 °C 57.7 °F /  14.3 °C 30.1in /  1018.6hPa Calm     96% 0in /  0.0mm 54 W/m2
07:44 59.2 °F /  15.1 °C 58.1 °F /  14.5 °C 30.1in /  1018.6hPa Calm     96% 0in /  0.0mm 56 W/m2
07:49 59.4 °F /  15.2 °C 58.5 °F /  14.7 °C 30.1in /  1018.6hPa Calm     97% 0in /  0.0mm 60 W/m2
07:54 59.5 °F /  15.3 °C 58.5 °F /  14.7 °C 30.1in /  1018.6hPa Calm     96% 0in /  0.0mm 62 W/m2
07:59 59.7 °F /  15.4 °C 58.6 °F /  14.8 °C 30.1in /  1018.6hPa Calm     96% 0in /  0.0mm 72 W/m2
08:04 60.3 °F /  15.7 °C 59.4 °F /  15.2 °C 30.1in /  1018.6hPa Calm     97% 0in /  0.0mm 69 W/m2
08:09 60.4 °F /  15.8 °C 59.5 °F /  15.3 °C 30.1in /  1018.6hPa Calm     97% 0in /  0.0mm 72 W/m2
08:14 61 °F /  16.1 °C 59.9 °F /  15.5 °C 30.1in /  1018.6hPa NE 0.9mph /  1.4km/h 1mph /  1.6km/h 96% 0in /  0.0mm 70 W/m2
08:19 61.5 °F /  16.4 °C 60.4 °F /  15.8 °C 30.1in /  1018.6hPa NE 0.9mph /  1.4km/h 2mph /  3.2km/h 96% 0in /  0.0mm 67 W/m2
08:24 62.2 °F /  16.8 °C 60.8 °F /  16 °C 30.1in /  1018.6hPa Calm   1mph /  1.6km/h 95% 0in /  0.0mm 69 W/m2
08:29 63 °F /  17.2 °C 61.2 °F /  16.2 °C 30.1in /  1018.6hPa Calm     94% 0in /  0.0mm 74 W/m2
08:34 63.7 °F /  17.6 °C 61.3 °F /  16.3 °C 30.1in /  1018.6hPa Calm     92% 0in /  0.0mm 83 W/m2
08:39 64 °F /  17.8 °C 61.3 °F /  16.3 °C 30.1in /  1018.6hPa Calm   1mph /  1.6km/h 91% 0in /  0.0mm 134 W/m2
08:44 64.6 °F /  18.1 °C 61.3 °F /  16.3 °C 30.1in /  1018.6hPa Calm     89% 0in /  0.0mm 218 W/m2
08:49 65.1 °F /  18.4 °C 61.5 °F /  16.4 °C 30.1in /  1018.6hPa ENE 0.9mph /  1.4km/h 1mph /  1.6km/h 88% 0in /  0.0mm 264 W/m2
08:54 65.7 °F /  18.7 °C 61.3 °F /  16.3 °C 30.1in /  1018.6hPa Calm   2mph /  3.2km/h 86% 0in /  0.0mm 283 W/m2
08:59 66 °F /  18.9 °C 61.3 °F /  16.3 °C 30.1in /  1018.6hPa Calm   2mph /  3.2km/h 85% 0in /  0.0mm 306 W/m2
09:04 66.4 °F /  19.1 °C 61 °F /  16.1 °C 30.1in /  1018.6hPa Calm   1mph /  1.6km/h 83% 0in /  0.0mm 295 W/m2
09:09 66.7 °F /  19.3 °C 61.3 °F /  16.3 °C 30.1in /  1018.6hPa NE 0.9mph /  1.4km/h 2mph /  3.2km/h 83% 0in /  0.0mm 323 W/m2
09:14 67.1 °F /  19.5 °C 61.3 °F /  16.3 °C 30.1in /  1019.0hPa NE 2mph /  3.2km/h 3mph /  4.8km/h 82% 0in /  0.0mm 378 W/m2
09:19 67.5 °F /  19.7 °C 62.1 °F /  16.7 °C 30.1in /  1018.6hPa ENE 2mph /  3.2km/h 2mph /  3.2km/h 83% 0in /  0.0mm 364 W/m2
09:24 67.6 °F /  19.8 °C 61.9 °F /  16.6 °C 30.1in /  1018.6hPa NE 0.9mph /  1.4km/h 3mph /  4.8km/h 82% 0in /  0.0mm 346 W/m2
09:29 67.6 °F /  19.8 °C 61.9 °F /  16.6 °C 30.1in /  1018.6hPa Calm   1mph /  1.6km/h 82% 0in /  0.0mm 309 W/m2
09:34 67.6 °F /  19.8 °C 61.9 °F /  16.6 °C 30.1in /  1018.6hPa Calm   1mph /  1.6km/h 82% 0in /  0.0mm 369 W/m2
09:39 67.6 °F /  19.8 °C 61.5 °F /  16.4 °C 30.1in /  1018.6hPa Calm   1mph /  1.6km/h 81% 0in /  0.0mm 114 W/m2
09:44 67.8 °F /  19.9 °C 62.1 °F /  16.7 °C 30.1in /  1018.6hPa Calm   1mph /  1.6km/h 82% 0in /  0.0mm 142 W/m2
09:49 68.4 °F /  20.2 °C 62.2 °F /  16.8 °C 30.1in /  1018.6hPa NE 2mph /  3.2km/h 3mph /  4.8km/h 81% 0in /  0.0mm 427 W/m2
09:54 68.7 °F /  20.4 °C 61.9 °F /  16.6 °C 30.1in /  1018.6hPa Calm   3mph /  4.8km/h 79% 0in /  0.0mm 455 W/m2
09:59 68.9 °F /  20.5 °C 61.3 °F /  16.3 °C 30.1in /  1019.0hPa Calm     77% 0in /  0.0mm 510 W/m2
10:04 69.3 °F /  20.7 °C 62.4 °F /  16.9 °C 30.1in /  1019.0hPa NE 0.9mph /  1.4km/h 3mph /  4.8km/h 79% 0in /  0.0mm 512 W/m2
10:09 70 °F /  21.1 °C 63.1 °F /  17.3 °C 30.1in /  1019.0hPa East 0.9mph /  1.4km/h 2mph /  3.2km/h 79% 0in /  0.0mm 536 W/m2
10:14 70.3 °F /  21.3 °C 63.1 °F /  17.3 °C 30.1in /  1018.6hPa ENE 2mph /  3.2km/h 3mph /  4.8km/h 78% 0in /  0.0mm 540 W/m2
10:19 70.5 °F /  21.4 °C 63 °F /  17.2 °C 30.1in /  1018.6hPa ENE 0.9mph /  1.4km/h 2mph /  3.2km/h 77% 0in /  0.0mm 476 W/m2
10:24 70.9 °F /  21.6 °C 63 °F /  17.2 °C 30.1in /  1018.6hPa NE 2.9mph /  4.7km/h 3mph /  4.8km/h 76% 0in /  0.0mm 475 W/m2
10:29 71.1 °F /  21.7 °C 63.1 °F /  17.3 °C 30.1in /  1018.6hPa East 0.9mph /  1.4km/h 3mph /  4.8km/h 76% 0in /  0.0mm 496 W/m2
10:34 71.8 °F /  22.1 °C 63.9 °F /  17.7 °C 30.1in /  1018.6hPa NE 0.9mph /  1.4km/h 3mph /  4.8km/h 76% 0in /  0.0mm 527 W/m2
10:39 72 °F /  22.2 °C 63.7 °F /  17.6 °C 30.1in /  1018.6hPa Calm   2mph /  3.2km/h 75% 0in /  0.0mm 471 W/m2
10:44 72.3 °F /  22.4 °C 63.5 °F /  17.5 °C 30.1in /  1018.6hPa NNW 2mph /  3.2km/h 3mph /  4.8km/h 74% 0in /  0.0mm 381 W/m2
10:49 72.5 °F /  22.5 °C 64 °F /  17.8 °C 30.1in /  1018.6hPa Calm   2mph /  3.2km/h 75% 0in /  0.0mm 598 W/m2
10:54 73.2 °F /  22.9 °C 64.8 °F /  18.2 °C 30.1in /  1018.6hPa Calm   2mph /  3.2km/h 75% 0in /  0.0mm 587 W/m2
10:59 73.8 °F /  23.2 °C 64.6 °F /  18.1 °C 30.1in /  1018.6hPa NNW 0.9mph /  1.4km/h 2mph /  3.2km/h 73% 0in /  0.0mm 545 W/m2
11:04 73.9 °F /  23.3 °C 64.4 °F /  18 °C 30.1in /  1018.6hPa NNW 2mph /  3.2km/h 3mph /  4.8km/h 72% 0in /  0.0mm 694 W/m2
11:09 73.9 °F /  23.3 °C 63.9 °F /  17.7 °C 30.1in /  1018.6hPa Calm   2mph /  3.2km/h 71% 0in /  0.0mm 387 W/m2
11:14 73.9 °F /  23.3 °C 63.9 °F /  17.7 °C 30.1in /  1018.6hPa NNE 0.9mph /  1.4km/h 1mph /  1.6km/h 71% 0in /  0.0mm 415 W/m2
11:19 74.5 °F /  23.6 °C 64.4 °F /  18 °C 30.1in /  1018.6hPa NE 0.9mph /  1.4km/h 3mph /  4.8km/h 71% 0in /  0.0mm 346 W/m2
11:24 74.7 °F /  23.7 °C 64.2 °F /  17.9 °C 30.1in /  1018.6hPa Calm     70% 0in /  0.0mm 388 W/m2
11:29 74.8 °F /  23.8 °C 64.4 °F /  18 °C 30.1in /  1018.6hPa Calm   2mph /  3.2km/h 70% 0in /  0.0mm 359 W/m2
11:34 75.4 °F /  24.1 °C 64.6 °F /  18.1 °C 30.1in /  1018.6hPa ENE 0.9mph /  1.4km/h 1mph /  1.6km/h 69% 0in /  0.0mm 554 W/m2
11:39 75.7 °F /  24.3 °C 64.4 °F /  18 °C 30.1in /  1018.3hPa East 2mph /  3.2km/h 3mph /  4.8km/h 68% 0in /  0.0mm 554 W/m2
11:44 76.1 °F /  24.5 °C 64.4 °F /  18 °C 30.1in /  1018.3hPa Calm   1mph /  1.6km/h 67% 0in /  0.0mm 494 W/m2
11:49 76.5 °F /  24.7 °C 65.1 °F /  18.4 °C 30.1in /  1018.3hPa NE 2.9mph /  4.7km/h 4mph /  6.4km/h 68% 0in /  0.0mm 552 W/m2
11:54 76.5 °F /  24.7 °C 64.2 °F /  17.9 °C 30.1in /  1018.3hPa Calm   1mph /  1.6km/h 66% 0in /  0.0mm 584 W/m2
11:59 76.8 °F /  24.9 °C 65.5 °F /  18.6 °C 30.1in /  1018.3hPa ENE 2mph /  3.2km/h 4mph /  6.4km/h 68% 0in /  0.0mm 591 W/m2
Juneau County Weather
Compliments of Weather Underground - 4 mb